createdAt,value
2017-07-31T00:01:15.895Z,6.00
2017-07-31T00:03:43.596Z,6.87
2017-07-31T00:06:10.536Z,5.33
2017-07-31T00:08:37.486Z,10.13
2017-07-31T00:11:05.386Z,7.47
2017-07-31T00:13:33.066Z,4.67
2017-07-31T00:16:00.001Z,5.63
2017-07-31T00:18:26.968Z,4.27
2017-07-31T00:20:54.660Z,4.40
2017-07-31T00:23:21.618Z,8.30
2017-07-31T00:25:48.551Z,8.70
2017-07-31T00:28:15.521Z,5.87
2017-07-31T00:30:42.484Z,7.17
2017-07-31T00:33:10.243Z,5.47
2017-07-31T00:35:37.188Z,7.57
2017-07-31T00:38:04.172Z,10.73
2017-07-31T00:40:31.931Z,7.13
2017-07-31T00:42:59.656Z,9.40
2017-07-31T00:45:27.601Z,2.67
2017-07-31T00:47:54.546Z,6.73
2017-07-31T00:50:21.482Z,5.50
2017-07-31T00:52:49.274Z,13.97
2017-07-31T00:55:16.220Z,5.60
2017-07-31T00:57:44.175Z,11.23
2017-07-31T01:00:11.124Z,10.07
2017-07-31T01:02:38.056Z,6.67
2017-07-31T01:05:06.083Z,8.50
2017-07-31T01:07:33.815Z,7.93
2017-07-31T01:10:00.800Z,7.13
2017-07-31T01:12:28.497Z,7.53
2017-07-31T01:14:55.458Z,6.93
2017-07-31T01:17:22.397Z,5.63
2017-07-31T01:19:49.372Z,6.80
2017-07-31T01:22:16.305Z,7.40
2017-07-31T01:24:43.308Z,7.57
2017-07-31T01:27:11.198Z,9.57
2017-07-31T01:29:38.145Z,4.00
2017-07-31T01:32:05.127Z,6.80
2017-07-31T01:34:32.071Z,6.40
2017-07-31T01:36:59.802Z,6.07
2017-07-31T01:39:26.764Z,3.10
2017-07-31T01:41:53.695Z,3.60
2017-07-31T01:44:20.665Z,5.70
2017-07-31T01:46:47.602Z,4.53
2017-07-31T01:49:14.551Z,5.00
2017-07-31T01:51:41.490Z,6.07
2017-07-31T01:54:08.471Z,10.00
2017-07-31T01:56:35.412Z,8.13
2017-07-31T01:59:02.340Z,4.80
2017-07-31T02:01:30.275Z,4.30
2017-07-31T02:03:57.225Z,10.83
2017-07-31T02:06:24.213Z,3.13
2017-07-31T02:08:51.174Z,8.70
2017-07-31T02:11:18.138Z,8.37
2017-07-31T02:13:45.077Z,6.60
2017-07-31T02:16:12.820Z,10.40
2017-07-31T02:18:39.759Z,17.27
2017-07-31T02:21:06.735Z,7.53
2017-07-31T02:23:33.676Z,10.10
2017-07-31T02:26:00.620Z,18.27
2017-07-31T02:28:27.569Z,6.70
2017-07-31T02:30:54.541Z,7.03
2017-07-31T02:33:21.498Z,23.73
2017-07-31T02:35:48.474Z,6.00
2017-07-31T02:38:16.371Z,10.00
2017-07-31T02:40:43.337Z,13.47
2017-07-31T02:43:10.294Z,9.00
2017-07-31T02:45:37.281Z,14.93
2017-07-31T02:48:05.078Z,15.00
2017-07-31T02:50:32.086Z,10.80
2017-07-31T02:52:59.073Z,17.33
2017-07-31T02:55:26.026Z,10.80
2017-07-31T02:57:53.035Z,11.10
2017-07-31T03:00:19.980Z,6.63
2017-07-31T03:02:46.957Z,11.27
2017-07-31T03:05:13.909Z,7.83
2017-07-31T03:07:40.907Z,10.37
2017-07-31T03:10:08.685Z,7.23
2017-07-31T03:12:36.601Z,12.00
2017-07-31T03:15:03.550Z,7.90
2017-07-31T03:17:31.448Z,6.17
2017-07-31T03:19:58.394Z,15.23
2017-07-31T03:22:25.340Z,12.20
2017-07-31T03:24:52.288Z,8.97
2017-07-31T03:27:19.217Z,7.90
2017-07-31T03:29:46.945Z,5.60
2017-07-31T03:32:13.887Z,8.90
2017-07-31T03:34:40.849Z,7.50
2017-07-31T03:37:07.792Z,9.93
2017-07-31T03:39:34.750Z,11.50
2017-07-31T03:42:02.486Z,14.47
2017-07-31T03:44:29.449Z,8.90
2017-07-31T03:46:56.392Z,14.93
2017-07-31T03:49:25.187Z,11.90
2017-07-31T03:51:52.883Z,14.60
2017-07-31T03:54:20.576Z,16.07
2017-07-31T03:56:47.522Z,7.27
2017-07-31T03:59:14.502Z,10.60
2017-07-31T04:01:42.216Z,9.93
2017-07-31T04:04:10.098Z,9.83
2017-07-31T04:06:37.798Z,12.83
2017-07-31T04:09:05.525Z,12.43
2017-07-31T04:11:32.476Z,17.30
2017-07-31T04:13:59.493Z,10.77
2017-07-31T04:16:26.472Z,15.70
2017-07-31T04:18:53.442Z,11.97
2017-07-31T04:21:20.387Z,8.83
2017-07-31T04:23:48.110Z,10.43
2017-07-31T04:26:15.042Z,13.27
2017-07-31T04:28:42.017Z,12.40
2017-07-31T04:31:08.958Z,13.20
2017-07-31T04:33:36.639Z,15.17
2017-07-31T04:36:03.596Z,16.10
2017-07-31T04:38:32.255Z,10.90
2017-07-31T04:41:00.159Z,17.17
2017-07-31T04:43:28.905Z,15.63
2017-07-31T04:45:55.853Z,7.40
2017-07-31T04:48:22.832Z,10.43
2017-07-31T04:50:50.534Z,13.07
2017-07-31T04:53:17.504Z,12.50
2017-07-31T04:55:44.453Z,9.83
2017-07-31T04:58:11.423Z,11.20
2017-07-31T05:00:39.128Z,20.27
2017-07-31T05:03:06.086Z,11.60
2017-07-31T05:05:33.058Z,18.50
2017-07-31T05:08:00.028Z,16.33
2017-07-31T05:10:28.412Z,13.00
2017-07-31T05:12:55.389Z,13.90
2017-07-31T05:15:24.280Z,11.13
2017-07-31T05:17:51.225Z,11.97
2017-07-31T05:20:18.308Z,10.30
2017-07-31T05:22:45.267Z,9.27
2017-07-31T05:25:12.981Z,10.43
2017-07-31T05:27:39.938Z,8.70
2017-07-31T05:30:08.853Z,10.13
2017-07-31T05:32:35.827Z,9.47
2017-07-31T05:35:02.815Z,8.83
2017-07-31T05:37:29.794Z,9.90
2017-07-31T05:39:56.757Z,13.80
2017-07-31T05:42:24.485Z,7.20
2017-07-31T05:44:51.432Z,5.90
2017-07-31T05:47:18.412Z,8.40
2017-07-31T05:49:45.362Z,12.40
2017-07-31T05:52:12.301Z,11.03
2017-07-31T05:54:40.058Z,7.20
2017-07-31T05:57:07.778Z,6.47
2017-07-31T05:59:34.737Z,8.83
2017-07-31T06:02:01.673Z,6.93
2017-07-31T06:04:28.924Z,8.40
2017-07-31T06:06:55.865Z,6.23
2017-07-31T06:09:23.989Z,10.50
2017-07-31T06:11:51.696Z,7.13
2017-07-31T06:14:18.684Z,7.50
2017-07-31T06:16:46.414Z,9.10
2017-07-31T06:19:13.401Z,7.80
2017-07-31T06:21:41.247Z,4.50
2017-07-31T06:24:08.200Z,6.50
2017-07-31T06:26:36.144Z,4.80
2017-07-31T06:29:03.909Z,13.20
2017-07-31T06:31:32.846Z,10.07
2017-07-31T06:33:59.803Z,5.73
2017-07-31T06:36:26.744Z,3.60
2017-07-31T06:38:53.696Z,8.23
2017-07-31T06:41:20.636Z,3.47
2017-07-31T06:43:47.597Z,5.43
2017-07-31T06:46:14.529Z,3.27
2017-07-31T06:48:41.485Z,3.67
2017-07-31T06:51:08.426Z,7.93
2017-07-31T06:53:35.785Z,3.90
2017-07-31T06:56:02.745Z,3.37
2017-07-31T06:58:29.774Z,7.70
2017-07-31T07:00:57.650Z,4.23
2017-07-31T07:03:25.469Z,3.80
2017-07-31T07:05:53.176Z,3.13
2017-07-31T07:08:21.144Z,3.43
2017-07-31T07:10:48.088Z,8.70
2017-07-31T07:13:15.048Z,10.03
2017-07-31T07:15:41.987Z,2.30
2017-07-31T07:18:08.940Z,2.87
2017-07-31T07:20:35.888Z,2.90
2017-07-31T07:23:02.866Z,4.37
2017-07-31T07:25:29.810Z,7.80
2017-07-31T07:27:56.793Z,2.20
2017-07-31T07:30:24.499Z,2.80
2017-07-31T07:32:52.496Z,7.47
2017-07-31T07:35:20.453Z,3.17
2017-07-31T07:37:47.423Z,10.53
2017-07-31T07:40:16.069Z,6.00
2017-07-31T07:42:43.028Z,4.67
2017-07-31T07:45:09.969Z,6.20
2017-07-31T07:47:37.918Z,3.40
2017-07-31T07:50:04.865Z,2.23
2017-07-31T07:52:31.817Z,4.27
2017-07-31T07:54:58.767Z,7.57
2017-07-31T07:57:25.715Z,8.40
2017-07-31T07:59:52.673Z,3.43
2017-07-31T08:02:19.642Z,2.47
2017-07-31T08:04:48.379Z,9.80
2017-07-31T08:07:15.323Z,3.73
2017-07-31T08:09:42.293Z,6.57
2017-07-31T08:12:11.244Z,4.60
2017-07-31T08:14:38.204Z,4.37
2017-07-31T08:17:05.153Z,1.53
2017-07-31T08:19:33.132Z,2.43
2017-07-31T08:22:00.081Z,1.40
2017-07-31T08:24:27.057Z,3.60
2017-07-31T08:26:54.005Z,7.70
2017-07-31T08:29:21.748Z,4.47
2017-07-31T08:31:48.679Z,3.73
2017-07-31T08:34:15.659Z,11.37
2017-07-31T08:36:43.361Z,3.20
2017-07-31T08:39:10.318Z,2.90
2017-07-31T08:41:37.249Z,2.73
2017-07-31T08:44:04.197Z,3.90
2017-07-31T08:46:33.697Z,1.80
2017-07-31T08:49:00.672Z,2.63
2017-07-31T08:51:27.673Z,3.03
2017-07-31T08:53:54.610Z,1.47
2017-07-31T08:56:21.551Z,3.80
2017-07-31T08:58:50.192Z,9.27
2017-07-31T09:01:17.155Z,1.10
2017-07-31T09:03:44.092Z,4.10
2017-07-31T09:06:11.054Z,2.77
2017-07-31T09:08:38.767Z,2.23
2017-07-31T09:11:05.731Z,1.30
2017-07-31T09:13:32.676Z,3.37
2017-07-31T09:16:00.564Z,1.27
2017-07-31T09:18:27.504Z,3.23
2017-07-31T09:20:54.445Z,1.57
2017-07-31T09:23:21.483Z,2.80
2017-07-31T09:25:48.440Z,3.17
2017-07-31T09:28:15.395Z,3.27
2017-07-31T09:30:42.342Z,1.60
2017-07-31T09:33:09.317Z,1.43
2017-07-31T09:35:36.264Z,1.70
2017-07-31T09:38:03.226Z,3.70
2017-07-31T09:40:31.093Z,2.17
2017-07-31T09:42:59.018Z,1.93
2017-07-31T09:45:25.994Z,5.50
2017-07-31T09:47:53.053Z,1.57
2017-07-31T09:50:20.897Z,1.70
2017-07-31T09:52:47.844Z,6.03
2017-07-31T09:55:14.788Z,2.67
2017-07-31T09:57:42.716Z,7.87
2017-07-31T10:00:10.601Z,3.63
2017-07-31T10:02:39.330Z,2.27
2017-07-31T10:05:06.292Z,1.30
2017-07-31T10:07:33.250Z,1.20
2017-07-31T10:10:02.231Z,3.93
2017-07-31T10:12:29.188Z,1.27
2017-07-31T10:14:57.143Z,4.73
2017-07-31T10:17:27.812Z,4.13
2017-07-31T10:19:55.760Z,1.13
2017-07-31T10:22:22.705Z,1.83
2017-07-31T10:24:49.690Z,1.67
2017-07-31T10:27:16.621Z,2.73
2017-07-31T10:29:44.324Z,1.70
2017-07-31T10:32:11.285Z,1.20
2017-07-31T10:34:38.240Z,1.27
2017-07-31T10:37:06.170Z,2.57
2017-07-31T10:39:34.070Z,1.17
2017-07-31T10:42:02.016Z,2.40
2017-07-31T10:44:28.995Z,2.40
2017-07-31T10:46:55.916Z,1.67
2017-07-31T10:49:22.951Z,2.20
2017-07-31T10:51:49.897Z,3.80
2017-07-31T10:54:16.840Z,5.40
2017-07-31T10:56:43.819Z,3.80
2017-07-31T10:59:11.677Z,6.80
2017-07-31T11:01:39.425Z,3.03
2017-07-31T11:04:06.389Z,1.73
2017-07-31T11:06:33.352Z,2.97
2017-07-31T11:09:01.074Z,1.60
2017-07-31T11:11:28.079Z,3.17
2017-07-31T11:13:55.971Z,4.20
2017-07-31T11:16:22.925Z,2.73
2017-07-31T11:18:50.879Z,4.10
2017-07-31T11:21:17.840Z,2.20
2017-07-31T11:23:44.784Z,2.63
2017-07-31T11:26:11.741Z,5.53
2017-07-31T11:28:38.696Z,3.03
2017-07-31T11:31:05.659Z,2.67
2017-07-31T11:33:33.373Z,2.40
2017-07-31T11:36:00.367Z,1.20
2017-07-31T11:38:28.065Z,2.70
2017-07-31T11:40:55.954Z,2.60
2017-07-31T11:43:24.370Z,2.50
2017-07-31T11:45:51.366Z,2.23
2017-07-31T11:48:18.334Z,1.80
2017-07-31T11:50:45.373Z,1.07
2017-07-31T11:53:12.328Z,5.80
2017-07-31T11:55:40.188Z,2.60
2017-07-31T11:58:07.162Z,0.93
2017-07-31T12:00:35.077Z,1.73
2017-07-31T12:03:02.152Z,1.63
2017-07-31T12:05:30.110Z,2.50
2017-07-31T12:07:57.103Z,1.20
2017-07-31T12:10:24.821Z,1.00
2017-07-31T12:12:51.765Z,2.10
2017-07-31T12:15:18.749Z,1.50
2017-07-31T12:17:46.634Z,2.90
2017-07-31T12:20:16.305Z,3.00
2017-07-31T12:22:43.254Z,4.93
2017-07-31T12:25:10.214Z,2.30
2017-07-31T12:27:38.845Z,3.20
2017-07-31T12:30:06.736Z,2.40
2017-07-31T12:32:33.680Z,2.73
2017-07-31T12:35:07.793Z,3.90
2017-07-31T12:37:34.751Z,1.43
2017-07-31T12:40:01.707Z,3.03
2017-07-31T12:47:58.847Z,4.03
2017-07-31T12:50:27.745Z,3.17
2017-07-31T12:52:54.730Z,1.20
2017-07-31T12:55:21.690Z,3.03
2017-07-31T12:57:49.397Z,1.40
2017-07-31T13:00:16.357Z,1.63
2017-07-31T13:02:43.302Z,3.50
2017-07-31T13:05:10.272Z,1.90
2017-07-31T13:07:37.993Z,2.50
2017-07-31T13:10:04.948Z,1.37
2017-07-31T13:12:32.822Z,2.37
2017-07-31T13:14:59.817Z,11.77
2017-07-31T13:17:27.594Z,1.90
2017-07-31T13:19:54.577Z,2.13
2017-07-31T13:22:21.549Z,2.10
2017-07-31T13:24:49.277Z,1.90
2017-07-31T13:27:17.142Z,2.00
2017-07-31T13:29:44.116Z,2.53
2017-07-31T13:32:11.068Z,8.93
2017-07-31T13:34:38.798Z,1.47
2017-07-31T13:37:05.752Z,1.07
2017-07-31T13:39:33.707Z,3.60
2017-07-31T13:42:00.668Z,2.57
2017-07-31T13:44:28.631Z,5.70
2017-07-31T13:46:55.605Z,3.53
2017-07-31T13:49:24.134Z,3.83
2017-07-31T13:51:52.016Z,1.33
2017-07-31T13:54:19.002Z,1.40
2017-07-31T13:56:46.728Z,1.70
2017-07-31T13:59:14.629Z,2.23
2017-07-31T14:01:41.578Z,1.37
2017-07-31T14:04:09.306Z,1.60
2017-07-31T14:06:36.263Z,3.23
2017-07-31T14:09:03.213Z,1.37
2017-07-31T14:11:30.183Z,2.20
2017-07-31T14:13:57.124Z,0.90
2017-07-31T14:16:25.881Z,2.40
2017-07-31T14:18:53.751Z,1.30
2017-07-31T14:21:20.730Z,1.23
2017-07-31T14:23:50.816Z,1.50
2017-07-31T14:26:17.822Z,1.40
2017-07-31T14:28:45.801Z,1.10
2017-07-31T14:31:12.760Z,2.13
2017-07-31T14:33:40.720Z,4.57
2017-07-31T14:36:08.608Z,6.30
2017-07-31T14:38:35.551Z,2.20
2017-07-31T14:41:03.512Z,0.60
2017-07-31T14:43:30.456Z,0.83
2017-07-31T14:45:57.459Z,1.67
2017-07-31T14:48:24.396Z,2.67
2017-07-31T14:50:51.391Z,1.40
2017-07-31T14:53:18.390Z,2.50
2017-07-31T14:55:45.377Z,2.60
2017-07-31T14:58:13.225Z,1.87
2017-07-31T15:00:40.198Z,2.60
2017-07-31T15:03:07.144Z,2.43
2017-07-31T15:05:34.105Z,2.00
2017-07-31T15:08:01.105Z,1.70
2017-07-31T15:10:28.093Z,2.53
2017-07-31T15:12:56.019Z,1.83
2017-07-31T15:15:22.986Z,2.03
2017-07-31T15:17:49.930Z,2.10
2017-07-31T15:20:16.955Z,3.80
2017-07-31T15:22:44.817Z,1.93
2017-07-31T15:25:11.782Z,3.03
2017-07-31T15:27:38.734Z,7.33
2017-07-31T15:30:06.645Z,2.17
2017-07-31T15:32:34.359Z,5.70
2017-07-31T15:35:01.342Z,1.47
2017-07-31T15:37:28.281Z,8.50
2017-07-31T15:39:56.122Z,1.33
2017-07-31T15:42:23.983Z,1.03
2017-07-31T15:44:51.869Z,2.50
2017-07-31T15:47:18.827Z,1.10
2017-07-31T15:49:45.775Z,3.60
2017-07-31T15:52:12.696Z,2.03
2017-07-31T15:54:39.652Z,4.30
2017-07-31T15:57:06.593Z,2.40
2017-07-31T15:59:42.087Z,2.80
2017-07-31T16:02:10.049Z,2.30
2017-07-31T16:04:39.088Z,4.40
2017-07-31T16:07:06.073Z,3.20
2017-07-31T16:09:33.164Z,6.70
2017-07-31T16:12:01.838Z,2.10
2017-07-31T16:14:30.726Z,3.03
2017-07-31T16:16:58.637Z,3.10
2017-07-31T16:19:25.621Z,3.20
2017-07-31T16:21:52.590Z,2.30
2017-07-31T16:24:20.476Z,1.83
2017-07-31T16:26:47.454Z,2.27
2017-07-31T16:29:22.059Z,1.23
2017-07-31T16:31:49.007Z,2.80
2017-07-31T16:34:16.006Z,4.10
2017-07-31T16:36:43.886Z,3.87
2017-07-31T16:39:24.792Z,2.20
2017-07-31T16:42:00.517Z,5.23
2017-07-31T16:44:47.292Z,2.90
2017-07-31T16:47:18.675Z,1.17
2017-07-31T16:49:45.644Z,1.97
2017-07-31T16:52:13.608Z,2.20
2017-07-31T16:54:40.573Z,2.27
2017-07-31T16:57:07.521Z,8.23
2017-07-31T16:59:35.404Z,4.30
2017-07-31T17:02:04.134Z,1.83
2017-07-31T17:04:31.227Z,3.00
2017-07-31T17:06:58.169Z,3.43
2017-07-31T17:09:27.012Z,4.20
2017-07-31T17:11:53.979Z,2.07
2017-07-31T17:14:20.969Z,2.23
2017-07-31T17:16:47.931Z,1.97
2017-07-31T17:19:14.889Z,6.73
2017-07-31T17:21:41.862Z,2.33
2017-07-31T17:24:08.821Z,2.07
2017-07-31T17:26:35.781Z,2.87
2017-07-31T17:29:02.787Z,2.90
2017-07-31T17:31:29.765Z,3.20
2017-07-31T17:33:56.701Z,4.07
2017-07-31T17:36:23.688Z,2.10
2017-07-31T17:38:50.669Z,1.90
2017-07-31T17:41:17.642Z,3.87
2017-07-31T17:43:50.221Z,5.10
2017-07-31T17:46:17.241Z,5.50
2017-07-31T17:48:44.213Z,5.57
2017-07-31T17:51:11.156Z,2.70
2017-07-31T17:53:40.081Z,2.83
2017-07-31T17:56:07.807Z,2.00
2017-07-31T17:58:34.756Z,4.17
2017-07-31T18:01:01.711Z,5.90
2017-07-31T18:03:28.660Z,4.13
2017-07-31T18:05:55.679Z,3.40
2017-07-31T18:08:26.817Z,3.70
2017-07-31T18:10:55.505Z,6.23
2017-07-31T18:13:23.453Z,2.37
2017-07-31T18:15:51.342Z,6.43
2017-07-31T18:18:18.313Z,4.90
2017-07-31T18:20:45.249Z,4.53
2017-07-31T18:23:12.502Z,5.30
2017-07-31T18:25:39.457Z,3.23
2017-07-31T18:28:06.428Z,5.40
2017-07-31T18:30:33.385Z,3.63
2017-07-31T18:33:00.350Z,3.80
2017-07-31T18:35:33.710Z,7.73
2017-07-31T18:38:01.426Z,3.93
2017-07-31T18:40:28.372Z,5.40
2017-07-31T18:42:55.365Z,4.47
2017-07-31T18:45:23.074Z,7.30
2017-07-31T18:47:50.017Z,3.63
2017-07-31T18:50:16.993Z,7.70
2017-07-31T18:52:43.943Z,4.10
2017-07-31T18:55:11.683Z,4.90
2017-07-31T18:57:40.661Z,6.67
2017-07-31T19:00:07.875Z,5.30
2017-07-31T19:02:35.643Z,6.70
2017-07-31T19:05:03.392Z,5.57
2017-07-31T19:07:31.131Z,6.70
2017-07-31T19:09:59.876Z,5.73
2017-07-31T19:12:28.730Z,4.87
2017-07-31T19:14:55.720Z,6.33
2017-07-31T19:17:22.665Z,4.80
2017-07-31T19:19:49.600Z,5.17
2017-07-31T19:22:16.569Z,6.23
2017-07-31T19:24:43.512Z,4.30
2017-07-31T19:27:11.425Z,6.43
2017-07-31T19:29:39.406Z,10.33
2017-07-31T19:32:06.394Z,9.13
2017-07-31T19:34:33.341Z,6.53
2017-07-31T19:37:00.394Z,7.23
2017-07-31T19:39:28.101Z,3.40
2017-07-31T19:41:55.987Z,7.77
2017-07-31T19:44:22.937Z,4.60
2017-07-31T19:46:49.890Z,4.67
2017-07-31T19:49:17.622Z,6.30
2017-07-31T19:51:44.593Z,6.87
2017-07-31T19:54:12.316Z,6.50
2017-07-31T19:56:41.306Z,6.87
2017-07-31T19:59:10.316Z,4.40
2017-07-31T20:01:39.120Z,4.67
2017-07-31T20:04:07.844Z,7.53
2017-07-31T20:06:34.785Z,6.40
2017-07-31T20:09:01.776Z,6.30
2017-07-31T20:11:28.722Z,13.43
2017-07-31T20:13:56.657Z,8.73
2017-07-31T20:16:23.606Z,6.80
2017-07-31T20:18:50.582Z,6.07
2017-07-31T20:21:17.517Z,9.80
2017-07-31T20:23:44.459Z,10.43
2017-07-31T20:26:11.424Z,14.53
2017-07-31T20:28:40.182Z,10.23
2017-07-31T20:31:07.125Z,6.77
2017-07-31T20:33:35.139Z,6.30
2017-07-31T20:36:02.849Z,4.90
2017-07-31T20:38:29.880Z,4.47
2017-07-31T20:40:57.589Z,7.90
2017-07-31T20:43:24.556Z,5.80
2017-07-31T20:45:51.540Z,7.87
2017-07-31T20:48:19.316Z,6.93
2017-07-31T20:50:48.029Z,7.30
2017-07-31T20:53:15.036Z,4.93
2017-07-31T20:55:41.991Z,9.37
2017-07-31T20:58:10.080Z,5.80
2017-07-31T21:00:37.014Z,11.47
2017-07-31T21:03:04.113Z,6.57
2017-07-31T21:05:33.730Z,8.73
2017-07-31T21:08:01.428Z,5.53
2017-07-31T21:10:29.402Z,11.20
2017-07-31T21:12:57.298Z,7.20
2017-07-31T21:15:24.262Z,5.40
2017-07-31T21:17:51.966Z,8.00
2017-07-31T21:20:18.965Z,8.17
2017-07-31T21:22:45.908Z,5.67
2017-07-31T21:25:13.886Z,7.83
2017-07-31T21:27:41.623Z,5.20
2017-07-31T21:30:09.666Z,5.30
2017-07-31T21:32:36.644Z,5.20
2017-07-31T21:35:05.612Z,10.33
2017-07-31T21:37:33.594Z,9.17
2017-07-31T21:40:00.552Z,6.27
2017-07-31T21:42:28.469Z,7.40
2017-07-31T21:44:56.538Z,8.53
2017-07-31T21:47:24.449Z,6.10
2017-07-31T21:49:51.410Z,11.00
2017-07-31T21:52:18.380Z,10.77
2017-07-31T21:54:45.349Z,8.40
2017-07-31T21:57:13.208Z,6.20
2017-07-31T21:59:40.267Z,6.03
2017-07-31T22:02:07.253Z,7.93
2017-07-31T22:04:34.214Z,9.40
2017-07-31T22:07:01.923Z,10.10
2017-07-31T22:09:28.893Z,7.93
2017-07-31T22:11:57.765Z,7.90
2017-07-31T22:14:24.717Z,8.43
2017-07-31T22:16:51.673Z,15.87
2017-07-31T22:19:18.636Z,6.30
2017-07-31T22:21:45.772Z,9.50
2017-07-31T22:24:13.625Z,9.13
2017-07-31T22:26:40.586Z,8.67
2017-07-31T22:29:07.525Z,9.10
2017-07-31T22:31:34.573Z,6.60
2017-07-31T22:34:01.613Z,13.57
2017-07-31T22:36:29.552Z,7.10
2017-07-31T22:38:56.490Z,8.53
2017-07-31T22:41:25.441Z,7.10
2017-07-31T22:43:52.372Z,6.83
2017-07-31T22:46:20.255Z,7.23
2017-07-31T22:48:50.107Z,13.87
2017-07-31T22:51:18.170Z,11.17
2017-07-31T22:53:45.132Z,5.63
2017-07-31T22:56:12.113Z,5.53
2017-07-31T22:58:39.417Z,7.63
2017-07-31T23:01:07.280Z,8.90
2017-07-31T23:03:37.366Z,7.80
2017-07-31T23:06:05.188Z,5.73
2017-07-31T23:08:32.135Z,7.33
2017-07-31T23:10:59.174Z,7.73
2017-07-31T23:13:26.155Z,6.00
2017-07-31T23:15:54.101Z,4.13
2017-07-31T23:18:21.043Z,7.37
2017-07-31T23:20:48.076Z,10.70
2017-07-31T23:23:15.961Z,7.90
2017-07-31T23:25:42.938Z,6.27
2017-07-31T23:28:09.986Z,5.60
2017-07-31T23:30:37.701Z,8.67
2017-07-31T23:33:04.685Z,6.77
2017-07-31T23:35:31.629Z,6.90
2017-07-31T23:37:58.625Z,6.13
2017-07-31T23:40:25.602Z,5.40
2017-07-31T23:42:52.538Z,6.97
2017-07-31T23:45:19.498Z,5.90
2017-07-31T23:47:46.481Z,6.30
2017-07-31T23:50:14.192Z,9.63
2017-07-31T23:52:43.156Z,6.77
2017-07-31T23:55:10.083Z,7.53
2017-07-31T23:57:37.928Z,8.80
